sensor_id;sensor_type;location;lat;lon;timestamp;temperature;humidity
12761;DHT22;6444;49.742;6.114;2023-02-21T00:01:23;4.60;99.90
12761;DHT22;6444;49.742;6.114;2023-02-21T00:04:09;5.00;99.90
12761;DHT22;6444;49.742;6.114;2023-02-21T00:06:53;4.90;99.90
12761;DHT22;6444;49.742;6.114;2023-02-21T00:09:38;5.40;99.90
12761;DHT22;6444;49.742;6.114;2023-02-21T00:12:23;5.80;99.90
12761;DHT22;6444;49.742;6.114;2023-02-21T00:15:08;6.10;99.90
12761;DHT22;6444;49.742;6.114;2023-02-21T00:17:52;6.10;99.90
12761;DHT22;6444;49.742;6.114;2023-02-21T00:20:38;6.40;99.90
12761;DHT22;6444;49.742;6.114;2023-02-21T00:23:23;6.40;99.90
12761;DHT22;6444;49.742;6.114;2023-02-21T00:26:09;6.50;99.90
12761;DHT22;6444;49.742;6.114;2023-02-21T00:28:54;6.40;99.90
12761;DHT22;6444;49.742;6.114;2023-02-21T00:31:39;6.70;99.90
12761;DHT22;6444;49.742;6.114;2023-02-21T00:34:24;6.50;99.90
12761;DHT22;6444;49.742;6.114;2023-02-21T00:37:09;6.60;99.90
12761;DHT22;6444;49.742;6.114;2023-02-21T00:39:53;6.60;99.90
12761;DHT22;6444;49.742;6.114;2023-02-21T00:42:38;6.70;99.90
12761;DHT22;6444;49.742;6.114;2023-02-21T00:45:23;6.30;99.90
12761;DHT22;6444;49.742;6.114;2023-02-21T00:48:08;6.30;99.90
12761;DHT22;6444;49.742;6.114;2023-02-21T00:50:53;6.30;99.90
12761;DHT22;6444;49.742;6.114;2023-02-21T00:53:38;6.30;99.90
12761;DHT22;6444;49.742;6.114;2023-02-21T00:56:23;6.40;99.90
12761;DHT22;6444;49.742;6.114;2023-02-21T00:59:08;6.40;99.90
12761;DHT22;6444;49.742;6.114;2023-02-21T01:01:53;6.40;99.90
12761;DHT22;6444;49.742;6.114;2023-02-21T01:04:37;5.90;99.90
12761;DHT22;6444;49.742;6.114;2023-02-21T01:07:22;6.00;99.90
12761;DHT22;6444;49.742;6.114;2023-02-21T01:10:07;6.10;99.90
12761;DHT22;6444;49.742;6.114;2023-02-21T01:12:52;6.10;99.90
12761;DHT22;6444;49.742;6.114;2023-02-21T01:15:37;5.40;99.90
12761;DHT22;6444;49.742;6.114;2023-02-21T01:18:22;5.30;99.90
12761;DHT22;6444;49.742;6.114;2023-02-21T01:21:11;5.70;99.90
12761;DHT22;6444;49.742;6.114;2023-02-21T01:23:52;5.70;99.90
12761;DHT22;6444;49.742;6.114;2023-02-21T01:26:36;5.80;99.90
12761;DHT22;6444;49.742;6.114;2023-02-21T01:29:22;5.80;99.90
12761;DHT22;6444;49.742;6.114;2023-02-21T01:32:06;5.70;99.90
12761;DHT22;6444;49.742;6.114;2023-02-21T01:34:52;5.80;99.90
12761;DHT22;6444;49.742;6.114;2023-02-21T01:37:38;5.80;99.90
12761;DHT22;6444;49.742;6.114;2023-02-21T01:40:22;5.70;99.90
12761;DHT22;6444;49.742;6.114;2023-02-21T01:43:17;5.10;99.90
12761;DHT22;6444;49.742;6.114;2023-02-21T01:46:00;5.20;99.90
12761;DHT22;6444;49.742;6.114;2023-02-21T01:48:45;5.20;99.90
12761;DHT22;6444;49.742;6.114;2023-02-21T01:51:30;5.30;99.90
12761;DHT22;6444;49.742;6.114;2023-02-21T01:54:14;5.30;99.90
12761;DHT22;6444;49.742;6.114;2023-02-21T01:56:59;5.30;99.90
12761;DHT22;6444;49.742;6.114;2023-02-21T01:59:44;5.40;99.90
12761;DHT22;6444;49.742;6.114;2023-02-21T02:02:51;5.30;99.90
12761;DHT22;6444;49.742;6.114;2023-02-21T02:05:32;5.20;99.90
12761;DHT22;6444;49.742;6.114;2023-02-21T02:08:17;5.20;99.90
12761;DHT22;6444;49.742;6.114;2023-02-21T02:11:05;5.10;99.90
12761;DHT22;6444;49.742;6.114;2023-02-21T02:13:51;5.00;99.90
12761;DHT22;6444;49.742;6.114;2023-02-21T02:27:04;5.30;99.90
12761;DHT22;6444;49.742;6.114;2023-02-21T02:38:01;4.50;99.90
12761;DHT22;6444;49.742;6.114;2023-02-21T02:43:00;5.00;99.90
12761;DHT22;6444;49.742;6.114;2023-02-21T02:45:31;4.70;99.90
12761;DHT22;6444;49.742;6.114;2023-02-21T02:47:58;4.80;99.90
12761;DHT22;6444;49.742;6.114;2023-02-21T02:50:23;4.80;99.90
12761;DHT22;6444;49.742;6.114;2023-02-21T02:52:53;4.90;99.90
12761;DHT22;6444;49.742;6.114;2023-02-21T02:55:29;4.80;99.90
12761;DHT22;6444;49.742;6.114;2023-02-21T02:57:51;4.60;99.90
12761;DHT22;6444;49.742;6.114;2023-02-21T03:00:18;4.40;99.90
12761;DHT22;6444;49.742;6.114;2023-02-21T03:06:04;4.70;99.90
12761;DHT22;6444;49.742;6.114;2023-02-21T03:08:37;4.40;99.90
12761;DHT22;6444;49.742;6.114;2023-02-21T03:21:30;4.20;99.90
12761;DHT22;6444;49.742;6.114;2023-02-21T03:23:57;4.30;99.90
12761;DHT22;6444;49.742;6.114;2023-02-21T03:26:24;4.20;99.90
12761;DHT22;6444;49.742;6.114;2023-02-21T03:28:51;4.80;99.90
12761;DHT22;6444;49.742;6.114;2023-02-21T03:31:20;5.00;99.90
12761;DHT22;6444;49.742;6.114;2023-02-21T03:33:47;5.00;99.90
12761;DHT22;6444;49.742;6.114;2023-02-21T03:36:13;4.90;99.90
12761;DHT22;6444;49.742;6.114;2023-02-21T03:38:41;4.90;99.90
12761;DHT22;6444;49.742;6.114;2023-02-21T03:41:08;4.40;99.90
12761;DHT22;6444;49.742;6.114;2023-02-21T03:43:38;4.40;99.90
12761;DHT22;6444;49.742;6.114;2023-02-21T03:46:02;4.60;99.90
12761;DHT22;6444;49.742;6.114;2023-02-21T03:48:29;4.50;99.90
12761;DHT22;6444;49.742;6.114;2023-02-21T03:50:57;4.10;99.90
12761;DHT22;6444;49.742;6.114;2023-02-21T03:53:23;4.00;99.90
12761;DHT22;6444;49.742;6.114;2023-02-21T03:55:51;3.40;99.90
12761;DHT22;6444;49.742;6.114;2023-02-21T03:58:18;3.40;99.90
12761;DHT22;6444;49.742;6.114;2023-02-21T04:00:45;4.20;99.90
12761;DHT22;6444;49.742;6.114;2023-02-21T04:03:12;4.10;99.90
12761;DHT22;6444;49.742;6.114;2023-02-21T04:05:38;4.40;99.90
12761;DHT22;6444;49.742;6.114;2023-02-21T04:08:05;4.60;99.90
12761;DHT22;6444;49.742;6.114;2023-02-21T04:10:32;4.50;99.90
12761;DHT22;6444;49.742;6.114;2023-02-21T04:12:59;4.30;99.90
12761;DHT22;6444;49.742;6.114;2023-02-21T04:15:26;4.20;99.90
12761;DHT22;6444;49.742;6.114;2023-02-21T04:17:53;4.60;99.90
12761;DHT22;6444;49.742;6.114;2023-02-21T04:20:19;4.80;99.90
12761;DHT22;6444;49.742;6.114;2023-02-21T04:22:46;4.70;99.90
12761;DHT22;6444;49.742;6.114;2023-02-21T04:25:13;4.70;99.90
12761;DHT22;6444;49.742;6.114;2023-02-21T04:27:39;4.70;99.90
12761;DHT22;6444;49.742;6.114;2023-02-21T04:30:06;4.80;99.90
12761;DHT22;6444;49.742;6.114;2023-02-21T04:32:34;4.50;99.90
12761;DHT22;6444;49.742;6.114;2023-02-21T04:35:01;4.50;99.90
12761;DHT22;6444;49.742;6.114;2023-02-21T04:37:31;4.20;99.90
12761;DHT22;6444;49.742;6.114;2023-02-21T04:39:58;4.20;99.90
12761;DHT22;6444;49.742;6.114;2023-02-21T04:42:25;4.00;99.90
12761;DHT22;6444;49.742;6.114;2023-02-21T04:44:51;4.10;99.90
12761;DHT22;6444;49.742;6.114;2023-02-21T04:47:18;4.40;99.90
12761;DHT22;6444;49.742;6.114;2023-02-21T04:49:49;4.50;99.90
12761;DHT22;6444;49.742;6.114;2023-02-21T04:52:16;4.50;99.90
12761;DHT22;6444;49.742;6.114;2023-02-21T04:54:45;4.70;99.90
12761;DHT22;6444;49.742;6.114;2023-02-21T04:57:09;4.90;99.90
12761;DHT22;6444;49.742;6.114;2023-02-21T04:59:36;4.90;99.90
12761;DHT22;6444;49.742;6.114;2023-02-21T05:02:04;5.10;99.90
12761;DHT22;6444;49.742;6.114;2023-02-21T05:04:31;5.40;99.90
12761;DHT22;6444;49.742;6.114;2023-02-21T05:06:58;4.80;99.90
12761;DHT22;6444;49.742;6.114;2023-02-21T05:09:25;4.80;99.90
12761;DHT22;6444;49.742;6.114;2023-02-21T05:11:51;4.20;99.90
12761;DHT22;6444;49.742;6.114;2023-02-21T05:14:18;4.60;99.90
12761;DHT22;6444;49.742;6.114;2023-02-21T05:16:45;4.90;99.90
12761;DHT22;6444;49.742;6.114;2023-02-21T05:19:11;4.70;99.90
12761;DHT22;6444;49.742;6.114;2023-02-21T05:21:38;4.60;99.90
12761;DHT22;6444;49.742;6.114;2023-02-21T05:24:05;4.80;99.90
12761;DHT22;6444;49.742;6.114;2023-02-21T05:26:35;5.10;99.90
12761;DHT22;6444;49.742;6.114;2023-02-21T05:29:01;5.30;99.90
12761;DHT22;6444;49.742;6.114;2023-02-21T05:31:27;5.30;99.90
12761;DHT22;6444;49.742;6.114;2023-02-21T05:33:54;5.50;99.90
12761;DHT22;6444;49.742;6.114;2023-02-21T05:36:20;5.60;99.90
12761;DHT22;6444;49.742;6.114;2023-02-21T05:38:48;5.70;99.90
12761;DHT22;6444;49.742;6.114;2023-02-21T05:41:14;4.60;99.90
12761;DHT22;6444;49.742;6.114;2023-02-21T05:43:45;4.50;99.90
12761;DHT22;6444;49.742;6.114;2023-02-21T05:46:21;4.40;99.90
12761;DHT22;6444;49.742;6.114;2023-02-21T05:48:46;4.40;99.90
12761;DHT22;6444;49.742;6.114;2023-02-21T05:51:13;4.00;99.90
12761;DHT22;6444;49.742;6.114;2023-02-21T05:53:39;3.60;99.90
12761;DHT22;6444;49.742;6.114;2023-02-21T05:56:06;4.00;99.90
12761;DHT22;6444;49.742;6.114;2023-02-21T05:58:33;4.60;99.90
12761;DHT22;6444;49.742;6.114;2023-02-21T06:01:00;4.60;99.90
12761;DHT22;6444;49.742;6.114;2023-02-21T06:03:26;4.70;99.90
12761;DHT22;6444;49.742;6.114;2023-02-21T06:05:53;4.80;99.90
12761;DHT22;6444;49.742;6.114;2023-02-21T06:08:20;4.90;99.90
12761;DHT22;6444;49.742;6.114;2023-02-21T06:10:46;5.10;99.90
12761;DHT22;6444;49.742;6.114;2023-02-21T06:13:13;5.00;99.90
12761;DHT22;6444;49.742;6.114;2023-02-21T06:15:40;5.00;99.90
12761;DHT22;6444;49.742;6.114;2023-02-21T06:18:06;5.20;99.90
12761;DHT22;6444;49.742;6.114;2023-02-21T06:20:33;4.90;99.90
12761;DHT22;6444;49.742;6.114;2023-02-21T06:22:59;4.60;99.90
12761;DHT22;6444;49.742;6.114;2023-02-21T06:25:26;4.30;99.90
12761;DHT22;6444;49.742;6.114;2023-02-21T06:27:53;3.50;99.90
12761;DHT22;6444;49.742;6.114;2023-02-21T06:30:19;3.50;99.90
12761;DHT22;6444;49.742;6.114;2023-02-21T06:32:46;4.10;99.90
12761;DHT22;6444;49.742;6.114;2023-02-21T06:35:13;4.50;99.90
12761;DHT22;6444;49.742;6.114;2023-02-21T06:37:39;4.80;99.90
12761;DHT22;6444;49.742;6.114;2023-02-21T06:40:06;5.10;99.90
12761;DHT22;6444;49.742;6.114;2023-02-21T06:42:33;5.10;99.90
12761;DHT22;6444;49.742;6.114;2023-02-21T06:44:59;5.10;99.90
12761;DHT22;6444;49.742;6.114;2023-02-21T06:47:26;5.20;99.90
12761;DHT22;6444;49.742;6.114;2023-02-21T06:49:52;5.30;99.90
12761;DHT22;6444;49.742;6.114;2023-02-21T06:52:19;5.40;99.90
12761;DHT22;6444;49.742;6.114;2023-02-21T06:54:48;4.30;99.90
12761;DHT22;6444;49.742;6.114;2023-02-21T06:57:12;3.80;99.90
12761;DHT22;6444;49.742;6.114;2023-02-21T06:59:39;4.30;99.90
12761;DHT22;6444;49.742;6.114;2023-02-21T07:02:07;4.80;99.90
12761;DHT22;6444;49.742;6.114;2023-02-21T07:04:32;5.00;99.90
12761;DHT22;6444;49.742;6.114;2023-02-21T07:06:59;4.80;99.90
12761;DHT22;6444;49.742;6.114;2023-02-21T07:09:25;5.10;99.90
12761;DHT22;6444;49.742;6.114;2023-02-21T07:11:52;5.10;99.90
12761;DHT22;6444;49.742;6.114;2023-02-21T07:14:19;5.10;99.90
12761;DHT22;6444;49.742;6.114;2023-02-21T07:16:45;4.60;99.90
12761;DHT22;6444;49.742;6.114;2023-02-21T07:19:12;4.40;99.90
12761;DHT22;6444;49.742;6.114;2023-02-21T07:21:39;4.20;99.90
12761;DHT22;6444;49.742;6.114;2023-02-21T07:24:05;3.90;99.90
12761;DHT22;6444;49.742;6.114;2023-02-21T07:26:32;4.30;99.90
12761;DHT22;6444;49.742;6.114;2023-02-21T07:28:58;4.20;99.90
12761;DHT22;6444;49.742;6.114;2023-02-21T07:31:25;4.30;99.90
12761;DHT22;6444;49.742;6.114;2023-02-21T07:33:52;4.50;99.90
12761;DHT22;6444;49.742;6.114;2023-02-21T07:36:18;5.00;99.90
12761;DHT22;6444;49.742;6.114;2023-02-21T07:38:45;5.10;99.90
12761;DHT22;6444;49.742;6.114;2023-02-21T07:41:13;5.90;99.90
12761;DHT22;6444;49.742;6.114;2023-02-21T07:43:39;5.80;99.90
12761;DHT22;6444;49.742;6.114;2023-02-21T07:46:12;5.60;99.90
12761;DHT22;6444;49.742;6.114;2023-02-21T07:48:38;5.50;99.90
12761;DHT22;6444;49.742;6.114;2023-02-21T07:51:07;5.80;99.90
12761;DHT22;6444;49.742;6.114;2023-02-21T07:53:33;6.00;99.90
12761;DHT22;6444;49.742;6.114;2023-02-21T07:56:00;6.20;99.90
12761;DHT22;6444;49.742;6.114;2023-02-21T07:58:27;6.60;99.90
12761;DHT22;6444;49.742;6.114;2023-02-21T08:00:53;6.80;99.90
12761;DHT22;6444;49.742;6.114;2023-02-21T08:03:20;7.00;99.90
12761;DHT22;6444;49.742;6.114;2023-02-21T08:05:48;7.10;99.90
12761;DHT22;6444;49.742;6.114;2023-02-21T08:08:14;7.00;99.90
12761;DHT22;6444;49.742;6.114;2023-02-21T08:10:41;6.70;99.90
12761;DHT22;6444;49.742;6.114;2023-02-21T08:13:08;6.20;99.90
12761;DHT22;6444;49.742;6.114;2023-02-21T08:15:34;6.10;99.90
12761;DHT22;6444;49.742;6.114;2023-02-21T08:18:01;6.50;99.90
12761;DHT22;6444;49.742;6.114;2023-02-21T08:20:28;6.90;99.90
12761;DHT22;6444;49.742;6.114;2023-02-21T08:22:54;7.30;99.90
12761;DHT22;6444;49.742;6.114;2023-02-21T08:25:21;7.80;99.90
12761;DHT22;6444;49.742;6.114;2023-02-21T08:27:48;8.00;99.90
12761;DHT22;6444;49.742;6.114;2023-02-21T08:30:15;8.00;99.90
12761;DHT22;6444;49.742;6.114;2023-02-21T08:32:41;8.10;99.90
12761;DHT22;6444;49.742;6.114;2023-02-21T08:35:09;7.90;99.90
12761;DHT22;6444;49.742;6.114;2023-02-21T08:37:35;7.10;99.90
12761;DHT22;6444;49.742;6.114;2023-02-21T08:40:02;5.70;99.90
12761;DHT22;6444;49.742;6.114;2023-02-21T08:42:29;5.70;99.90
12761;DHT22;6444;49.742;6.114;2023-02-21T08:44:55;5.20;99.90
12761;DHT22;6444;49.742;6.114;2023-02-21T08:47:22;5.70;99.90
12761;DHT22;6444;49.742;6.114;2023-02-21T08:49:49;6.50;99.90
12761;DHT22;6444;49.742;6.114;2023-02-21T08:52:15;7.40;99.90
12761;DHT22;6444;49.742;6.114;2023-02-21T08:54:42;8.00;99.90
12761;DHT22;6444;49.742;6.114;2023-02-21T08:57:09;8.50;99.90
12761;DHT22;6444;49.742;6.114;2023-02-21T08:59:38;8.70;99.90
12761;DHT22;6444;49.742;6.114;2023-02-21T09:02:02;9.10;99.90
12761;DHT22;6444;49.742;6.114;2023-02-21T09:04:28;9.10;99.90
12761;DHT22;6444;49.742;6.114;2023-02-21T09:06:55;8.00;99.90
12761;DHT22;6444;49.742;6.114;2023-02-21T09:09:22;7.50;99.90
12761;DHT22;6444;49.742;6.114;2023-02-21T09:11:48;8.00;99.90
12761;DHT22;6444;49.742;6.114;2023-02-21T09:14:15;8.60;99.90
12761;DHT22;6444;49.742;6.114;2023-02-21T09:16:41;7.00;99.90
12761;DHT22;6444;49.742;6.114;2023-02-21T09:19:08;6.80;99.90
12761;DHT22;6444;49.742;6.114;2023-02-21T09:21:35;7.50;99.90
12761;DHT22;6444;49.742;6.114;2023-02-21T09:24:01;7.90;99.90
12761;DHT22;6444;49.742;6.114;2023-02-21T09:26:28;8.20;99.90
12761;DHT22;6444;49.742;6.114;2023-02-21T09:28:55;9.00;99.90
12761;DHT22;6444;49.742;6.114;2023-02-21T09:31:22;9.80;99.90
12761;DHT22;6444;49.742;6.114;2023-02-21T09:33:49;9.70;99.90
12761;DHT22;6444;49.742;6.114;2023-02-21T09:36:16;10.10;99.90
12761;DHT22;6444;49.742;6.114;2023-02-21T09:38:42;10.00;99.90
12761;DHT22;6444;49.742;6.114;2023-02-21T09:41:12;10.30;99.90
12761;DHT22;6444;49.742;6.114;2023-02-21T09:43:45;10.70;99.90
12761;DHT22;6444;49.742;6.114;2023-02-21T09:47:00;10.70;99.90
12761;DHT22;6444;49.742;6.114;2023-02-21T09:48:40;10.70;99.90
12761;DHT22;6444;49.742;6.114;2023-02-21T09:51:07;11.00;99.90
12761;DHT22;6444;49.742;6.114;2023-02-21T09:53:43;11.40;99.90
12761;DHT22;6444;49.742;6.114;2023-02-21T09:56:12;10.90;99.90
12761;DHT22;6444;49.742;6.114;2023-02-21T09:58:41;8.90;99.90
12761;DHT22;6444;49.742;6.114;2023-02-21T10:01:06;7.90;99.90
12761;DHT22;6444;49.742;6.114;2023-02-21T10:06:09;9.80;99.90
12761;DHT22;6444;49.742;6.114;2023-02-21T10:14:09;9.30;99.90
12761;DHT22;6444;49.742;6.114;2023-02-21T10:16:36;10.30;99.90
12761;DHT22;6444;49.742;6.114;2023-02-21T10:21:35;10.20;99.90
12761;DHT22;6444;49.742;6.114;2023-02-21T10:24:02;11.60;99.90
12761;DHT22;6444;49.742;6.114;2023-02-21T10:26:28;12.70;99.90
12761;DHT22;6444;49.742;6.114;2023-02-21T10:28:54;14.40;99.90
12761;DHT22;6444;49.742;6.114;2023-02-21T10:31:25;16.20;99.90
12761;DHT22;6444;49.742;6.114;2023-02-21T10:33:50;19.30;99.90
12761;DHT22;6444;49.742;6.114;2023-02-21T10:36:18;19.20;99.90
12761;DHT22;6444;49.742;6.114;2023-02-21T10:39:09;19.20;99.90
12761;DHT22;6444;49.742;6.114;2023-02-21T10:41:10;18.90;99.90
12761;DHT22;6444;49.742;6.114;2023-02-21T10:43:39;18.70;99.90
12761;DHT22;6444;49.742;6.114;2023-02-21T10:46:32;18.40;99.90
12761;DHT22;6444;49.742;6.114;2023-02-21T10:49:29;18.70;99.90
12761;DHT22;6444;49.742;6.114;2023-02-21T10:51:38;18.50;99.90
12761;DHT22;6444;49.742;6.114;2023-02-21T10:54:30;18.40;99.90
12761;DHT22;6444;49.742;6.114;2023-02-21T10:56:35;19.40;99.90
12761;DHT22;6444;49.742;6.114;2023-02-21T10:59:02;20.70;99.90
12761;DHT22;6444;49.742;6.114;2023-02-21T11:03:59;20.70;99.90
12761;DHT22;6444;49.742;6.114;2023-02-21T11:06:23;19.90;99.90
12761;DHT22;6444;49.742;6.114;2023-02-21T11:08:48;19.10;99.90
12761;DHT22;6444;49.742;6.114;2023-02-21T11:13:48;16.60;99.90
12761;DHT22;6444;49.742;6.114;2023-02-21T11:16:18;15.60;99.90
12761;DHT22;6444;49.742;6.114;2023-02-21T11:18:44;15.60;99.90
12761;DHT22;6444;49.742;6.114;2023-02-21T11:21:17;15.40;99.90
12761;DHT22;6444;49.742;6.114;2023-02-21T11:23:56;15.10;99.90
12761;DHT22;6444;49.742;6.114;2023-02-21T11:26:22;14.80;99.90
12761;DHT22;6444;49.742;6.114;2023-02-21T11:28:48;14.90;99.90
12761;DHT22;6444;49.742;6.114;2023-02-21T11:31:28;15.30;99.90
12761;DHT22;6444;49.742;6.114;2023-02-21T11:33:57;15.60;99.90
12761;DHT22;6444;49.742;6.114;2023-02-21T11:36:36;15.90;99.90
12761;DHT22;6444;49.742;6.114;2023-02-21T11:39:06;16.10;99.90
12761;DHT22;6444;49.742;6.114;2023-02-21T11:41:53;16.10;99.90
12761;DHT22;6444;49.742;6.114;2023-02-21T11:44:20;16.10;99.90
12761;DHT22;6444;49.742;6.114;2023-02-21T11:46:43;15.90;99.90
12761;DHT22;6444;49.742;6.114;2023-02-21T11:49:32;16.20;99.90
12761;DHT22;6444;49.742;6.114;2023-02-21T11:52:01;16.50;99.90
12761;DHT22;6444;49.742;6.114;2023-02-21T11:54:24;16.50;99.90
12761;DHT22;6444;49.742;6.114;2023-02-21T12:02:13;16.80;99.90
12761;DHT22;6444;49.742;6.114;2023-02-21T12:05:02;16.50;99.90
12761;DHT22;6444;49.742;6.114;2023-02-21T12:07:55;16.70;99.90
12761;DHT22;6444;49.742;6.114;2023-02-21T12:13:04;16.60;99.90
12761;DHT22;6444;49.742;6.114;2023-02-21T12:23:52;17.20;99.90
12761;DHT22;6444;49.742;6.114;2023-02-21T12:26:20;16.90;99.90
12761;DHT22;6444;49.742;6.114;2023-02-21T12:34:30;17.30;99.90
12761;DHT22;6444;49.742;6.114;2023-02-21T12:36:55;17.70;99.90
12761;DHT22;6444;49.742;6.114;2023-02-21T12:39:24;17.40;99.90
12761;DHT22;6444;49.742;6.114;2023-02-21T12:42:06;17.60;99.90
12761;DHT22;6444;49.742;6.114;2023-02-21T12:44:54;17.50;99.90
12761;DHT22;6444;49.742;6.114;2023-02-21T12:47:18;18.00;99.90
12761;DHT22;6444;49.742;6.114;2023-02-21T12:50:00;18.20;99.90
12761;DHT22;6444;49.742;6.114;2023-02-21T12:52:31;17.60;99.90
12761;DHT22;6444;49.742;6.114;2023-02-21T12:54:57;16.30;99.90
12761;DHT22;6444;49.742;6.114;2023-02-21T12:57:29;16.00;99.90
12761;DHT22;6444;49.742;6.114;2023-02-21T13:02:39;15.70;99.90
12761;DHT22;6444;49.742;6.114;2023-02-21T13:05:06;15.50;99.90
12761;DHT22;6444;49.742;6.114;2023-02-21T13:07:34;15.60;99.90
12761;DHT22;6444;49.742;6.114;2023-02-21T13:10:15;15.70;99.90
12761;DHT22;6444;49.742;6.114;2023-02-21T13:12:45;15.90;99.90
12761;DHT22;6444;49.742;6.114;2023-02-21T13:15:22;15.90;99.90
12761;DHT22;6444;49.742;6.114;2023-02-21T13:18:03;16.00;99.90
12761;DHT22;6444;49.742;6.114;2023-02-21T13:20:28;16.10;99.90
12761;DHT22;6444;49.742;6.114;2023-02-21T13:28:55;16.70;99.90
12761;DHT22;6444;49.742;6.114;2023-02-21T13:31:23;16.60;99.90
12761;DHT22;6444;49.742;6.114;2023-02-21T13:33:52;16.60;99.90
12761;DHT22;6444;49.742;6.114;2023-02-21T13:41:29;16.80;99.90
12761;DHT22;6444;49.742;6.114;2023-02-21T13:43:55;16.40;99.90
12761;DHT22;6444;49.742;6.114;2023-02-21T13:46:23;16.50;99.90
12761;DHT22;6444;49.742;6.114;2023-02-21T13:51:53;16.50;99.90
12761;DHT22;6444;49.742;6.114;2023-02-21T13:54:22;16.30;99.90
12761;DHT22;6444;49.742;6.114;2023-02-21T13:56:50;16.70;99.90
12761;DHT22;6444;49.742;6.114;2023-02-21T14:02:13;16.50;99.00
12761;DHT22;6444;49.742;6.114;2023-02-21T14:07:45;16.80;98.70
12761;DHT22;6444;49.742;6.114;2023-02-21T14:10:21;16.80;98.70
12761;DHT22;6444;49.742;6.114;2023-02-21T14:12:43;17.20;98.50
12761;DHT22;6444;49.742;6.114;2023-02-21T14:15:10;17.10;98.70
12761;DHT22;6444;49.742;6.114;2023-02-21T14:17:36;17.90;98.00
12761;DHT22;6444;49.742;6.114;2023-02-21T14:20:03;18.10;97.10
12761;DHT22;6444;49.742;6.114;2023-02-21T14:22:30;17.40;97.60
12761;DHT22;6444;49.742;6.114;2023-02-21T14:25:05;17.30;97.10
12761;DHT22;6444;49.742;6.114;2023-02-21T14:27:30;17.20;97.10
12761;DHT22;6444;49.742;6.114;2023-02-21T14:32:36;17.00;97.60
12761;DHT22;6444;49.742;6.114;2023-02-21T14:35:12;16.70;97.40
12761;DHT22;6444;49.742;6.114;2023-02-21T14:43:20;16.60;96.70
12761;DHT22;6444;49.742;6.114;2023-02-21T14:51:09;16.50;95.80
12761;DHT22;6444;49.742;6.114;2023-02-21T14:59:02;16.60;96.00
12761;DHT22;6444;49.742;6.114;2023-02-21T15:01:52;17.00;95.50
12761;DHT22;6444;49.742;6.114;2023-02-21T15:09:34;18.10;95.20
12761;DHT22;6444;49.742;6.114;2023-02-21T15:12:02;17.90;94.90
12761;DHT22;6444;49.742;6.114;2023-02-21T15:14:28;17.70;94.60
12761;DHT22;6444;49.742;6.114;2023-02-21T15:16:55;17.90;94.20
12761;DHT22;6444;49.742;6.114;2023-02-21T15:22:22;17.00;93.90
12761;DHT22;6444;49.742;6.114;2023-02-21T15:27:24;17.50;93.80
12761;DHT22;6444;49.742;6.114;2023-02-21T15:30:07;17.90;93.90
12761;DHT22;6444;49.742;6.114;2023-02-21T15:32:33;18.10;93.70
12761;DHT22;6444;49.742;6.114;2023-02-21T15:34:58;18.00;94.40
12761;DHT22;6444;49.742;6.114;2023-02-21T15:37:26;17.80;94.80
12761;DHT22;6444;49.742;6.114;2023-02-21T15:39:58;17.70;94.20
12761;DHT22;6444;49.742;6.114;2023-02-21T15:42:21;17.90;93.70
12761;DHT22;6444;49.742;6.114;2023-02-21T15:44:52;18.20;93.50
12761;DHT22;6444;49.742;6.114;2023-02-21T15:47:23;18.00;93.50
12761;DHT22;6444;49.742;6.114;2023-02-21T15:50:06;18.10;93.70
12761;DHT22;6444;49.742;6.114;2023-02-21T15:52:36;18.20;93.70
12761;DHT22;6444;49.742;6.114;2023-02-21T15:57:46;18.00;98.80
12761;DHT22;6444;49.742;6.114;2023-02-21T16:00:35;16.80;99.90
12761;DHT22;6444;49.742;6.114;2023-02-21T16:05:53;16.20;99.90
12761;DHT22;6444;49.742;6.114;2023-02-21T16:08:19;15.50;99.90
12761;DHT22;6444;49.742;6.114;2023-02-21T16:10:46;15.50;99.90
12761;DHT22;6444;49.742;6.114;2023-02-21T16:13:12;14.70;99.90
12761;DHT22;6444;49.742;6.114;2023-02-21T16:15:39;15.00;99.90
12761;DHT22;6444;49.742;6.114;2023-02-21T16:18:09;14.40;99.90
12761;DHT22;6444;49.742;6.114;2023-02-21T16:20:36;13.60;99.90
12761;DHT22;6444;49.742;6.114;2023-02-21T16:23:24;13.30;99.90
12761;DHT22;6444;49.742;6.114;2023-02-21T16:26:02;12.80;99.90
12761;DHT22;6444;49.742;6.114;2023-02-21T16:28:28;13.20;99.90
12761;DHT22;6444;49.742;6.114;2023-02-21T16:30:54;13.90;99.90
12761;DHT22;6444;49.742;6.114;2023-02-21T16:33:21;14.00;99.90
12761;DHT22;6444;49.742;6.114;2023-02-21T16:35:47;14.40;99.90
12761;DHT22;6444;49.742;6.114;2023-02-21T16:38:15;13.80;99.90
12761;DHT22;6444;49.742;6.114;2023-02-21T16:40:40;13.40;99.90
12761;DHT22;6444;49.742;6.114;2023-02-21T16:43:14;12.10;99.90
12761;DHT22;6444;49.742;6.114;2023-02-21T16:45:34;12.00;99.90
12761;DHT22;6444;49.742;6.114;2023-02-21T16:48:02;11.70;99.90
12761;DHT22;6444;49.742;6.114;2023-02-21T16:50:34;11.60;99.90
12761;DHT22;6444;49.742;6.114;2023-02-21T16:53:00;11.30;99.90
12761;DHT22;6444;49.742;6.114;2023-02-21T16:55:27;11.70;99.90
12761;DHT22;6444;49.742;6.114;2023-02-21T16:57:55;11.70;99.90
12761;DHT22;6444;49.742;6.114;2023-02-21T17:00:20;11.40;99.90
12761;DHT22;6444;49.742;6.114;2023-02-21T17:02:50;11.70;99.90
12761;DHT22;6444;49.742;6.114;2023-02-21T17:05:13;12.10;99.90
12761;DHT22;6444;49.742;6.114;2023-02-21T17:07:40;12.40;99.90
12761;DHT22;6444;49.742;6.114;2023-02-21T17:10:07;11.90;99.90
12761;DHT22;6444;49.742;6.114;2023-02-21T17:12:33;11.00;99.90
12761;DHT22;6444;49.742;6.114;2023-02-21T17:15:00;11.20;99.90
12761;DHT22;6444;49.742;6.114;2023-02-21T17:17:26;11.60;99.90
12761;DHT22;6444;49.742;6.114;2023-02-21T17:19:53;11.70;99.90
12761;DHT22;6444;49.742;6.114;2023-02-21T17:22:20;11.90;99.90
12761;DHT22;6444;49.742;6.114;2023-02-21T17:24:46;11.80;99.90
12761;DHT22;6444;49.742;6.114;2023-02-21T17:27:13;11.80;99.90
12761;DHT22;6444;49.742;6.114;2023-02-21T17:29:40;11.40;99.90
12761;DHT22;6444;49.742;6.114;2023-02-21T17:32:06;11.30;99.90
12761;DHT22;6444;49.742;6.114;2023-02-21T17:34:33;11.10;99.90
12761;DHT22;6444;49.742;6.114;2023-02-21T17:37:00;10.90;99.90
12761;DHT22;6444;49.742;6.114;2023-02-21T17:39:26;10.20;99.90
12761;DHT22;6444;49.742;6.114;2023-02-21T17:41:53;9.60;99.90
12761;DHT22;6444;49.742;6.114;2023-02-21T17:44:20;9.60;99.90
12761;DHT22;6444;49.742;6.114;2023-02-21T17:46:50;10.10;99.90
12761;DHT22;6444;49.742;6.114;2023-02-21T17:49:14;9.90;99.90
12761;DHT22;6444;49.742;6.114;2023-02-21T17:51:39;10.30;99.90
12761;DHT22;6444;49.742;6.114;2023-02-21T17:54:06;10.50;99.90
12761;DHT22;6444;49.742;6.114;2023-02-21T17:56:32;10.10;99.90
12761;DHT22;6444;49.742;6.114;2023-02-21T17:58:59;9.70;99.90
12761;DHT22;6444;49.742;6.114;2023-02-21T18:01:26;9.90;99.90
12761;DHT22;6444;49.742;6.114;2023-02-21T18:03:52;9.90;99.90
12761;DHT22;6444;49.742;6.114;2023-02-21T18:06:19;9.60;99.90
12761;DHT22;6444;49.742;6.114;2023-02-21T18:08:46;9.10;99.90
12761;DHT22;6444;49.742;6.114;2023-02-21T18:11:13;9.40;99.90
12761;DHT22;6444;49.742;6.114;2023-02-21T18:13:40;9.40;99.90
12761;DHT22;6444;49.742;6.114;2023-02-21T18:16:06;9.30;99.90
12761;DHT22;6444;49.742;6.114;2023-02-21T18:18:33;9.50;99.90
12761;DHT22;6444;49.742;6.114;2023-02-21T18:21:00;9.30;99.90
12761;DHT22;6444;49.742;6.114;2023-02-21T18:23:30;9.10;99.90
12761;DHT22;6444;49.742;6.114;2023-02-21T18:25:57;9.30;99.90